sensor_id;sensor_type;location;lat;lon;timestamp;pressure;altitude;pressure_sealevel;temperature;humidity
6464;BME280;3265;42.694;23.282;2023-04-05T00:00:25;94129.13;;;0.04;100.00
6464;BME280;3265;42.694;23.282;2023-04-05T00:02:52;94132.78;;;0.10;100.00
6464;BME280;3265;42.694;23.282;2023-04-05T00:05:18;94107.25;;;0.10;100.00
6464;BME280;3265;42.694;23.282;2023-04-05T00:07:54;94121.28;;;0.14;100.00
6464;BME280;3265;42.694;23.282;2023-04-05T00:10:21;94113.75;;;0.12;100.00
6464;BME280;3265;42.694;23.282;2023-04-05T00:12:47;94122.84;;;0.15;100.00
6464;BME280;3265;42.694;23.282;2023-04-05T00:15:16;94116.16;;;0.14;100.00
6464;BME280;3265;42.694;23.282;2023-04-05T00:17:44;94109.31;;;0.06;100.00
6464;BME280;3265;42.694;23.282;2023-04-05T00:20:12;94113.75;;;0.12;100.00
6464;BME280;3265;42.694;23.282;2023-04-05T00:22:40;94119.09;;;0.03;100.00
6464;BME280;3265;42.694;23.282;2023-04-05T00:25:09;94125.13;;;0.10;100.00
6464;BME280;3265;42.694;23.282;2023-04-05T00:27:36;94120.59;;;0.20;100.00
6464;BME280;3265;42.694;23.282;2023-04-05T00:30:03;94113.47;;;0.07;100.00
6464;BME280;3265;42.694;23.282;2023-04-05T00:32:32;94116.84;;;0.08;100.00
6464;BME280;3265;42.694;23.282;2023-04-05T00:34:58;94125.72;;;0.12;100.00
6464;BME280;3265;42.694;23.282;2023-04-05T00:37:25;94118.75;;;0.06;100.00
6464;BME280;3265;42.694;23.282;2023-04-05T00:39:52;94112.91;;;-0.03;100.00
6464;BME280;3265;42.694;23.282;2023-04-05T00:42:19;94125.34;;;0.00;100.00
6464;BME280;3265;42.694;23.282;2023-04-05T00:44:46;94114.59;;;0.05;100.00
6464;BME280;3265;42.694;23.282;2023-04-05T00:47:13;94111.22;;;0.12;100.00
6464;BME280;3265;42.694;23.282;2023-04-05T00:49:41;94123.97;;;0.12;100.00
6464;BME280;3265;42.694;23.282;2023-04-05T00:52:08;94131.97;;;0.09;100.00
6464;BME280;3265;42.694;23.282;2023-04-05T00:54:35;94128.50;;;0.02;100.00
6464;BME280;3265;42.694;23.282;2023-04-05T00:57:03;94126.59;;;0.04;100.00
6464;BME280;3265;42.694;23.282;2023-04-05T00:59:31;94137.75;;;0.03;100.00
6464;BME280;3265;42.694;23.282;2023-04-05T01:02:01;94126.38;;;0.14;100.00
6464;BME280;3265;42.694;23.282;2023-04-05T01:04:29;94137.81;;;0.26;100.00
6464;BME280;3265;42.694;23.282;2023-04-05T01:07:06;94130.59;;;0.29;100.00
6464;BME280;3265;42.694;23.282;2023-04-05T01:09:42;94134.63;;;0.24;100.00
6464;BME280;3265;42.694;23.282;2023-04-05T01:12:15;94132.41;;;0.21;100.00
6464;BME280;3265;42.694;23.282;2023-04-05T01:14:48;94126.66;;;0.19;100.00
6464;BME280;3265;42.694;23.282;2023-04-05T01:17:15;94125.59;;;0.13;100.00
6464;BME280;3265;42.694;23.282;2023-04-05T01:19:49;94131.53;;;0.06;100.00
6464;BME280;3265;42.694;23.282;2023-04-05T01:25:42;94133.78;;;0.00;100.00
6464;BME280;3265;42.694;23.282;2023-04-05T01:28:27;94142.66;;;0.13;100.00
6464;BME280;3265;42.694;23.282;2023-04-05T01:31:06;94131.50;;;0.14;100.00
6464;BME280;3265;42.694;23.282;2023-04-05T01:33:39;94142.00;;;0.19;100.00
6464;BME280;3265;42.694;23.282;2023-04-05T01:36:14;94143.59;;;0.20;100.00
6464;BME280;3265;42.694;23.282;2023-04-05T01:38:45;94151.53;;;0.25;100.00
6464;BME280;3265;42.694;23.282;2023-04-05T01:41:14;94157.94;;;0.21;100.00
6464;BME280;3265;42.694;23.282;2023-04-05T01:43:41;94143.88;;;0.25;100.00
6464;BME280;3265;42.694;23.282;2023-04-05T01:46:09;94146.59;;;0.23;100.00
6464;BME280;3265;42.694;23.282;2023-04-05T01:48:36;94151.53;;;0.25;100.00
6464;BME280;3265;42.694;23.282;2023-04-05T01:51:03;94141.38;;;0.17;100.00
6464;BME280;3265;42.694;23.282;2023-04-05T01:53:30;94145.88;;;0.07;100.00
6464;BME280;3265;42.694;23.282;2023-04-05T01:55:59;94149.75;;;0.03;100.00
6464;BME280;3265;42.694;23.282;2023-04-05T01:58:26;94147.53;;;-0.01;100.00
6464;BME280;3265;42.694;23.282;2023-04-05T02:00:53;94145.53;;;0.10;100.00
6464;BME280;3265;42.694;23.282;2023-04-05T02:03:22;94148.84;;;0.18;100.00
6464;BME280;3265;42.694;23.282;2023-04-05T02:05:49;94143.88;;;0.25;100.00
6464;BME280;3265;42.694;23.282;2023-04-05T02:08:17;94152.22;;;0.19;100.00
6464;BME280;3265;42.694;23.282;2023-04-05T02:10:44;94147.63;;;0.14;100.00
6464;BME280;3265;42.694;23.282;2023-04-05T02:13:11;94153.38;;;0.08;100.00
6464;BME280;3265;42.694;23.282;2023-04-05T02:15:39;94154.28;;;0.15;100.00
6464;BME280;3265;42.694;23.282;2023-04-05T02:18:06;94153.81;;;0.20;100.00
6464;BME280;3265;42.694;23.282;2023-04-05T02:20:35;94153.47;;;0.23;100.00
6464;BME280;3265;42.694;23.282;2023-04-05T02:23:01;94151.06;;;0.21;100.00
6464;BME280;3265;42.694;23.282;2023-04-05T02:25:28;94155.84;;;0.24;100.00
6464;BME280;3265;42.694;23.282;2023-04-05T02:27:55;94138.50;;;0.20;100.00
6464;BME280;3265;42.694;23.282;2023-04-05T02:30:22;94151.69;;;0.23;100.00
6464;BME280;3265;42.694;23.282;2023-04-05T02:32:49;94157.75;;;0.30;100.00
6464;BME280;3265;42.694;23.282;2023-04-05T02:35:15;94155.22;;;0.22;100.00
6464;BME280;3265;42.694;23.282;2023-04-05T02:37:44;94150.28;;;0.21;100.00
6464;BME280;3265;42.694;23.282;2023-04-05T02:40:12;94139.16;;;0.14;100.00
6464;BME280;3265;42.694;23.282;2023-04-05T02:42:39;94156.31;;;0.28;100.00
6464;BME280;3265;42.694;23.282;2023-04-05T02:45:07;94142.59;;;0.21;100.00
6464;BME280;3265;42.694;23.282;2023-04-05T02:47:34;94140.19;;;0.27;100.00
6464;BME280;3265;42.694;23.282;2023-04-05T02:50:00;94147.97;;;0.34;100.00
6464;BME280;3265;42.694;23.282;2023-04-05T02:52:27;94152.09;;;0.35;100.00
6464;BME280;3265;42.694;23.282;2023-04-05T02:54:57;94146.72;;;0.30;100.00
6464;BME280;3265;42.694;23.282;2023-04-05T02:57:25;94141.47;;;0.23;100.00
6464;BME280;3265;42.694;23.282;2023-04-05T02:59:52;94140.38;;;0.26;100.00
6464;BME280;3265;42.694;23.282;2023-04-05T03:02:19;94128.59;;;0.17;100.00
6464;BME280;3265;42.694;23.282;2023-04-05T03:04:47;94148.47;;;0.29;100.00
6464;BME280;3265;42.694;23.282;2023-04-05T03:07:13;94137.50;;;0.21;100.00
6464;BME280;3265;42.694;23.282;2023-04-05T03:09:43;94151.69;;;0.23;100.00
6464;BME280;3265;42.694;23.282;2023-04-05T03:12:12;94128.25;;;0.20;100.00
6464;BME280;3265;42.694;23.282;2023-04-05T03:14:39;94148.66;;;0.28;100.00
6464;BME280;3265;42.694;23.282;2023-04-05T03:17:06;94142.94;;;0.26;100.00
6464;BME280;3265;42.694;23.282;2023-04-05T03:19:33;94137.63;;;0.27;100.00
6464;BME280;3265;42.694;23.282;2023-04-05T03:22:00;94139.66;;;0.32;100.00
6464;BME280;3265;42.694;23.282;2023-04-05T03:24:27;94139.78;;;0.16;100.00
6464;BME280;3265;42.694;23.282;2023-04-05T03:26:53;94146.34;;;0.10;100.00
6464;BME280;3265;42.694;23.282;2023-04-05T03:29:21;94150.00;;;0.16;100.00
6464;BME280;3265;42.694;23.282;2023-04-05T03:31:48;94128.66;;;0.00;100.00
6464;BME280;3265;42.694;23.282;2023-04-05T03:34:15;94140.47;;;0.02;100.00
6464;BME280;3265;42.694;23.282;2023-04-05T03:36:42;94144.78;;;0.01;100.00
6464;BME280;3265;42.694;23.282;2023-04-05T03:39:11;94145.84;;;0.15;100.00
6464;BME280;3265;42.694;23.282;2023-04-05T03:41:39;94155.72;;;0.18;100.00
6464;BME280;3265;42.694;23.282;2023-04-05T03:44:06;94141.53;;;0.15;100.00
6464;BME280;3265;42.694;23.282;2023-04-05T03:46:35;94148.66;;;0.28;100.00
6464;BME280;3265;42.694;23.282;2023-04-05T03:49:02;94156.38;;;0.20;100.00
6464;BME280;3265;42.694;23.282;2023-04-05T03:51:29;94157.31;;;0.19;100.00
6464;BME280;3265;42.694;23.282;2023-04-05T03:53:57;94155.50;;;0.27;100.00
6464;BME280;3265;42.694;23.282;2023-04-05T03:56:23;94163.13;;;0.35;100.00
6464;BME280;3265;42.694;23.282;2023-04-05T03:58:52;94167.81;;;0.24;100.00
6464;BME280;3265;42.694;23.282;2023-04-05T04:01:18;94152.22;;;0.19;100.00
6464;BME280;3265;42.694;23.282;2023-04-05T04:03:47;94164.66;;;0.22;100.00
6464;BME280;3265;42.694;23.282;2023-04-05T04:06:14;94166.03;;;0.32;100.00
6464;BME280;3265;42.694;23.282;2023-04-05T04:08:42;94177.09;;;0.25;100.00
6464;BME280;3265;42.694;23.282;2023-04-05T04:11:09;94173.91;;;0.23;100.00
6464;BME280;3265;42.694;23.282;2023-04-05T04:13:36;94170.56;;;0.22;100.00
6464;BME280;3265;42.694;23.282;2023-04-05T04:16:03;94147.47;;;0.08;100.00
6464;BME280;3265;42.694;23.282;2023-04-05T04:18:30;94165.44;;;0.22;100.00
6464;BME280;3265;42.694;23.282;2023-04-05T04:21:01;94178.03;;;0.24;100.00
6464;BME280;3265;42.694;23.282;2023-04-05T04:23:31;94173.91;;;0.23;100.00
6464;BME280;3265;42.694;23.282;2023-04-05T04:25:57;94165.94;;;0.18;100.00
6464;BME280;3265;42.694;23.282;2023-04-05T04:28:28;94175.38;;;0.09;100.00
6464;BME280;3265;42.694;23.282;2023-04-05T04:30:54;94178.25;;;0.14;100.00
6464;BME280;3265;42.694;23.282;2023-04-05T04:33:21;94181.59;;;0.15;100.00
6464;BME280;3265;42.694;23.282;2023-04-05T04:35:48;94177.63;;;0.12;100.00
6464;BME280;3265;42.694;23.282;2023-04-05T04:38:20;94183.47;;;0.21;100.00
6464;BME280;3265;42.694;23.282;2023-04-05T04:40:50;94174.09;;;0.13;100.00
6464;BME280;3265;42.694;23.282;2023-04-05T04:43:18;94172.59;;;0.27;100.00
6464;BME280;3265;42.694;23.282;2023-04-05T04:45:51;94183.75;;;0.34;100.00
6464;BME280;3265;42.694;23.282;2023-04-05T04:48:19;94185.84;;;0.30;100.00
6464;BME280;3265;42.694;23.282;2023-04-05T04:50:49;94159.72;;;0.12;100.00
6464;BME280;3265;42.694;23.282;2023-04-05T04:53:16;94189.81;;;0.33;100.00
6464;BME280;3265;42.694;23.282;2023-04-05T04:55:44;94177.22;;;0.31;100.00
6464;BME280;3265;42.694;23.282;2023-04-05T04:58:14;94192.66;;;0.38;100.00
6464;BME280;3265;42.694;23.282;2023-04-05T05:00:42;94194.94;;;0.33;100.00
6464;BME280;3265;42.694;23.282;2023-04-05T05:03:10;94182.84;;;0.19;100.00
6464;BME280;3265;42.694;23.282;2023-04-05T05:05:41;94190.19;;;0.22;100.00
6464;BME280;3265;42.694;23.282;2023-04-05T05:08:08;94187.94;;;0.27;100.00
6464;BME280;3265;42.694;23.282;2023-04-05T05:10:34;94189.25;;;0.23;100.00
6464;BME280;3265;42.694;23.282;2023-04-05T05:13:03;94185.25;;;0.20;100.00
6464;BME280;3265;42.694;23.282;2023-04-05T05:15:29;94196.56;;;0.26;100.00
6464;BME280;3265;42.694;23.282;2023-04-05T05:17:56;94195.09;;;0.31;100.00
6464;BME280;3265;42.694;23.282;2023-04-05T05:20:24;94189.16;;;0.39;100.00
6464;BME280;3265;42.694;23.282;2023-04-05T05:22:52;94195.19;;;0.46;100.00
6464;BME280;3265;42.694;23.282;2023-04-05T05:25:19;94182.63;;;0.36;100.00
6464;BME280;3265;42.694;23.282;2023-04-05T05:27:47;94201.97;;;0.31;100.00
6464;BME280;3265;42.694;23.282;2023-04-05T05:30:15;94199.75;;;0.28;100.00
6464;BME280;3265;42.694;23.282;2023-04-05T05:32:42;94198.09;;;0.35;100.00
6464;BME280;3265;42.694;23.282;2023-04-05T05:35:09;94178.50;;;0.27;100.00
6464;BME280;3265;42.694;23.282;2023-04-05T05:37:36;94192.09;;;0.28;100.00
6464;BME280;3265;42.694;23.282;2023-04-05T05:40:04;94201.78;;;0.32;100.00
6464;BME280;3265;42.694;23.282;2023-04-05T05:42:31;94204.19;;;0.34;100.00
6464;BME280;3265;42.694;23.282;2023-04-05T05:45:01;94197.16;;;0.36;100.00
6464;BME280;3265;42.694;23.282;2023-04-05T05:47:29;94195.97;;;0.46;100.00
6464;BME280;3265;42.694;23.282;2023-04-05T05:49:56;94198.50;;;0.54;100.00
6464;BME280;3265;42.694;23.282;2023-04-05T05:52:23;94192.41;;;0.55;100.00
6464;BME280;3265;42.694;23.282;2023-04-05T05:54:50;94195.38;;;0.67;100.00
6464;BME280;3265;42.694;23.282;2023-04-05T05:57:17;94182.09;;;0.72;100.00
6464;BME280;3265;42.694;23.282;2023-04-05T05:59:43;94195.28;;;0.83;100.00
6464;BME280;3265;42.694;23.282;2023-04-05T06:02:11;94199.38;;;0.92;100.00
6464;BME280;3265;42.694;23.282;2023-04-05T06:04:39;94194.47;;;1.05;100.00
6464;BME280;3265;42.694;23.282;2023-04-05T06:07:07;94199.66;;;0.97;100.00
6464;BME280;3265;42.694;23.282;2023-04-05T06:09:33;94198.19;;;1.03;100.00
6464;BME280;3265;42.694;23.282;2023-04-05T06:12:00;94204.53;;;1.07;100.00
6464;BME280;3265;42.694;23.282;2023-04-05T06:14:27;94178.75;;;0.94;100.00
6464;BME280;3265;42.694;23.282;2023-04-05T06:16:54;94199.75;;;1.27;100.00
6464;BME280;3265;42.694;23.282;2023-04-05T06:19:21;94212.13;;;1.38;100.00
6464;BME280;3265;42.694;23.282;2023-04-05T06:21:50;94216.56;;;1.44;100.00
6464;BME280;3265;42.694;23.282;2023-04-05T06:24:16;94213.66;;;1.24;100.00
6464;BME280;3265;42.694;23.282;2023-04-05T06:26:43;94213.78;;;1.31;100.00
6464;BME280;3265;42.694;23.282;2023-04-05T06:29:10;94216.72;;;1.42;100.00
6464;BME280;3265;42.694;23.282;2023-04-05T06:31:37;94205.78;;;1.48;100.00
6464;BME280;3265;42.694;23.282;2023-04-05T06:34:05;94212.59;;;1.41;100.00
6464;BME280;3265;42.694;23.282;2023-04-05T06:36:32;94222.31;;;1.46;100.00
6464;BME280;3265;42.694;23.282;2023-04-05T06:39:00;94213.13;;;1.51;100.00
6464;BME280;3265;42.694;23.282;2023-04-05T06:41:27;94224.53;;;1.63;100.00
6464;BME280;3265;42.694;23.282;2023-04-05T06:43:55;94208.47;;;1.55;100.00
6464;BME280;3265;42.694;23.282;2023-04-05T06:46:22;94228.78;;;1.71;100.00
6464;BME280;3265;42.694;23.282;2023-04-05T06:48:50;94234.91;;;1.70;100.00
6464;BME280;3265;42.694;23.282;2023-04-05T06:51:19;94232.59;;;1.75;100.00
6464;BME280;3265;42.694;23.282;2023-04-05T06:53:46;94241.50;;;1.79;100.00
6464;BME280;3265;42.694;23.282;2023-04-05T06:56:14;94236.47;;;1.71;100.00
6464;BME280;3265;42.694;23.282;2023-04-05T06:58:41;94247.53;;;1.86;100.00
6464;BME280;3265;42.694;23.282;2023-04-05T07:01:08;94207.06;;;1.52;100.00
6464;BME280;3265;42.694;23.282;2023-04-05T07:03:35;94256.94;;;1.71;100.00
6464;BME280;3265;42.694;23.282;2023-04-05T07:06:05;94253.97;;;1.82;100.00
6464;BME280;3265;42.694;23.282;2023-04-05T07:08:36;94251.25;;;1.84;100.00
6464;BME280;3265;42.694;23.282;2023-04-05T07:11:02;94271.88;;;2.05;100.00
6464;BME280;3265;42.694;23.282;2023-04-05T07:13:31;94266.00;;;2.11;100.00
6464;BME280;3265;42.694;23.282;2023-04-05T07:15:59;94242.88;;;2.04;100.00
6464;BME280;3265;42.694;23.282;2023-04-05T07:18:27;94272.28;;;2.23;100.00
6464;BME280;3265;42.694;23.282;2023-04-05T07:20:56;94262.03;;;2.08;100.00
6464;BME280;3265;42.694;23.282;2023-04-05T07:23:24;94255.69;;;2.19;100.00
6464;BME280;3265;42.694;23.282;2023-04-05T07:25:52;94276.38;;;2.17;100.00
6464;BME280;3265;42.694;23.282;2023-04-05T07:28:19;94275.50;;;2.10;100.00
6464;BME280;3265;42.694;23.282;2023-04-05T07:30:47;94281.72;;;2.08;100.00
6464;BME280;3265;42.694;23.282;2023-04-05T07:33:14;94273.09;;;2.09;100.00
6464;BME280;3265;42.694;23.282;2023-04-05T07:35:41;94275.50;;;2.10;100.00
6464;BME280;3265;42.694;23.282;2023-04-05T07:38:08;94274.59;;;2.18;100.00
6464;BME280;3265;42.694;23.282;2023-04-05T07:40:35;94281.31;;;2.19;100.00
6464;BME280;3265;42.694;23.282;2023-04-05T07:43:02;94274.34;;;2.27;100.00
6464;BME280;3265;42.694;23.282;2023-04-05T07:45:29;94293.84;;;2.28;98.91
6464;BME280;3265;42.694;23.282;2023-04-05T07:47:57;94288.47;;;2.23;99.13
6464;BME280;3265;42.694;23.282;2023-04-05T07:50:26;94285.19;;;2.15;99.62
6464;BME280;3265;42.694;23.282;2023-04-05T07:52:53;94297.56;;;2.11;98.98
6464;BME280;3265;42.694;23.282;2023-04-05T07:55:19;94304.78;;;2.08;99.59
6464;BME280;3265;42.694;23.282;2023-04-05T07:57:46;94303.84;;;2.09;98.90
6464;BME280;3265;42.694;23.282;2023-04-05T08:00:14;94305.88;;;1.99;99.67
6464;BME280;3265;42.694;23.282;2023-04-05T08:02:40;94310.88;;;1.92;100.00
6464;BME280;3265;42.694;23.282;2023-04-05T08:05:09;94308.66;;;1.89;100.00
6464;BME280;3265;42.694;23.282;2023-04-05T08:07:36;94302.81;;;1.81;100.00
6464;BME280;3265;42.694;23.282;2023-04-05T08:10:09;94309.88;;;1.79;100.00
6464;BME280;3265;42.694;23.282;2023-04-05T08:12:36;94306.88;;;1.75;100.00
6464;BME280;3265;42.694;23.282;2023-04-05T08:15:10;94284.66;;;1.67;100.00
6464;BME280;3265;42.694;23.282;2023-04-05T08:17:38;94273.81;;;1.65;100.00
6464;BME280;3265;42.694;23.282;2023-04-05T08:20:05;94320.44;;;1.98;100.00
6464;BME280;3265;42.694;23.282;2023-04-05T08:22:34;94316.03;;;2.07;100.00
6464;BME280;3265;42.694;23.282;2023-04-05T08:25:01;94305.03;;;1.84;100.00
6464;BME280;3265;42.694;23.282;2023-04-05T08:27:27;94318.22;;;1.95;100.00
6464;BME280;3265;42.694;23.282;2023-04-05T08:29:54;94315.47;;;1.97;100.00
6464;BME280;3265;42.694;23.282;2023-04-05T08:32:21;94328.94;;;1.99;100.00
6464;BME280;3265;42.694;23.282;2023-04-05T08:34:48;94320.53;;;2.05;100.00
6464;BME280;3265;42.694;23.282;2023-04-05T08:37:15;94321.31;;;2.05;100.00
6464;BME280;3265;42.694;23.282;2023-04-05T08:43:24;94328.25;;;2.34;100.00
6464;BME280;3265;42.694;23.282;2023-04-05T08:46:00;94303.22;;;2.07;100.00
6464;BME280;3265;42.694;23.282;2023-04-05T08:48:30;94328.38;;;2.03;100.00
6464;BME280;3265;42.694;23.282;2023-04-05T08:50:57;94331.22;;;2.08;100.00
6464;BME280;3265;42.694;23.282;2023-04-05T08:53:32;94316.63;;;1.94;100.00
6464;BME280;3265;42.694;23.282;2023-04-05T08:55:59;94334.22;;;1.97;100.00
6464;BME280;3265;42.694;23.282;2023-04-05T08:58:28;94330.41;;;1.93;100.00
6464;BME280;3265;42.694;23.282;2023-04-05T09:00:59;94335.38;;;2.09;100.00
6464;BME280;3265;42.694;23.282;2023-04-05T09:03:32;94336.72;;;2.20;100.00
6464;BME280;3265;42.694;23.282;2023-04-05T09:06:03;94349.72;;;2.18;100.00
6464;BME280;3265;42.694;23.282;2023-04-05T09:08:31;94343.91;;;2.24;100.00
6464;BME280;3265;42.694;23.282;2023-04-05T09:10:59;94351.59;;;2.24;100.00
6464;BME280;3265;42.694;23.282;2023-04-05T09:13:25;94355.84;;;2.32;100.00
6464;BME280;3265;42.694;23.282;2023-04-05T09:15:54;94363.78;;;2.37;100.00
6464;BME280;3265;42.694;23.282;2023-04-05T09:18:22;94350.28;;;2.43;99.60
6464;BME280;3265;42.694;23.282;2023-04-05T09:20:49;94356.91;;;2.52;99.78
6464;BME280;3265;42.694;23.282;2023-04-05T09:23:16;94370.69;;;2.51;100.00
6464;BME280;3265;42.694;23.282;2023-04-05T09:25:42;94367.78;;;2.54;100.00
6464;BME280;3265;42.694;23.282;2023-04-05T09:28:11;94354.69;;;2.64;100.00
6464;BME280;3265;42.694;23.282;2023-04-05T09:30:37;94350.81;;;2.68;99.59
6464;BME280;3265;42.694;23.282;2023-04-05T09:33:06;94348.06;;;2.84;99.57
6464;BME280;3265;42.694;23.282;2023-04-05T09:35:35;94345.94;;;2.88;98.19
6464;BME280;3265;42.694;23.282;2023-04-05T09:38:03;94345.69;;;2.97;97.23
6464;BME280;3265;42.694;23.282;2023-04-05T09:40:40;94346.44;;;2.98;96.94
6464;BME280;3265;42.694;23.282;2023-04-05T09:43:08;94352.91;;;3.08;96.33
6464;BME280;3265;42.694;23.282;2023-04-05T09:45:38;94345.81;;;3.10;96.25
6464;BME280;3265;42.694;23.282;2023-04-05T09:48:07;94346.06;;;3.15;96.35
6464;BME280;3265;42.694;23.282;2023-04-05T09:50:35;94351.38;;;3.28;95.10
6464;BME280;3265;42.694;23.282;2023-04-05T09:53:14;94344.88;;;3.32;94.20
6464;BME280;3265;42.694;23.282;2023-04-05T09:56:08;94341.63;;;3.24;92.35
6464;BME280;3265;42.694;23.282;2023-04-05T09:58:35;94345.72;;;3.18;92.15
6464;BME280;3265;42.694;23.282;2023-04-05T10:01:03;94356.78;;;3.19;92.53
6464;BME280;3265;42.694;23.282;2023-04-05T10:03:45;94354.13;;;3.12;92.97
6464;BME280;3265;42.694;23.282;2023-04-05T10:06:12;94347.09;;;3.00;91.73
6464;BME280;3265;42.694;23.282;2023-04-05T10:08:40;94349.91;;;2.90;91.84
6464;BME280;3265;42.694;23.282;2023-04-05T10:11:07;94349.31;;;2.88;91.66
6464;BME280;3265;42.694;23.282;2023-04-05T10:13:35;94353.78;;;3.01;91.10
6464;BME280;3265;42.694;23.282;2023-04-05T10:16:05;94346.75;;;2.88;90.24
6464;BME280;3265;42.694;23.282;2023-04-05T10:18:41;94357.38;;;2.70;90.10
6464;BME280;3265;42.694;23.282;2023-04-05T10:21:14;94357.97;;;2.72;90.45
6464;BME280;3265;42.694;23.282;2023-04-05T10:23:45;94360.38;;;2.89;90.32
6464;BME280;3265;42.694;23.282;2023-04-05T10:26:18;94351.41;;;2.99;90.51
6464;BME280;3265;42.694;23.282;2023-04-05T10:28:47;94347.28;;;3.34;89.36
6464;BME280;3265;42.694;23.282;2023-04-05T10:31:22;94360.31;;;3.54;88.88
6464;BME280;3265;42.694;23.282;2023-04-05T10:33:55;94349.19;;;3.68;86.77
6464;BME280;3265;42.694;23.282;2023-04-05T10:36:33;94358.69;;;3.88;86.05
6464;BME280;3265;42.694;23.282;2023-04-05T10:39:11;94359.34;;;4.18;86.00
6464;BME280;3265;42.694;23.282;2023-04-05T10:41:47;94360.94;;;4.53;84.44
6464;BME280;3265;42.694;23.282;2023-04-05T10:44:14;94355.03;;;4.53;83.72
6464;BME280;3265;42.694;23.282;2023-04-05T10:46:44;94368.25;;;4.78;83.43
6464;BME280;3265;42.694;23.282;2023-04-05T10:49:23;94357.41;;;4.89;83.39
6464;BME280;3265;42.694;23.282;2023-04-05T10:51:54;94355.16;;;4.73;82.91
6464;BME280;3265;42.694;23.282;2023-04-05T10:54:21;94363.63;;;4.67;82.61
6464;BME280;3265;42.694;23.282;2023-04-05T10:56:49;94386.03;;;4.73;82.94
6464;BME280;3265;42.694;23.282;2023-04-05T10:59:17;94371.31;;;4.60;81.90
6464;BME280;3265;42.694;23.282;2023-04-05T11:01:45;94361.41;;;4.29;82.83
6464;BME280;3265;42.694;23.282;2023-04-05T11:04:14;94370.28;;;4.27;84.62
6464;BME280;3265;42.694;23.282;2023-04-05T11:06:42;94368.75;;;4.32;85.16
6464;BME280;3265;42.694;23.282;2023-04-05T11:09:14;94368.69;;;4.53;83.88
6464;BME280;3265;42.694;23.282;2023-04-05T11:11:44;94370.97;;;4.70;82.68
6464;BME280;3265;42.694;23.282;2023-04-05T11:14:19;94372.69;;;4.97;81.60
6464;BME280;3265;42.694;23.282;2023-04-05T11:16:47;94384.91;;;4.82;80.28
6464;BME280;3265;42.694;23.282;2023-04-05T11:19:19;94373.81;;;4.88;80.84
6464;BME280;3265;42.694;23.282;2023-04-05T11:21:46;94382.34;;;4.54;81.98
6464;BME280;3265;42.694;23.282;2023-04-05T11:24:13;94343.03;;;4.39;81.62
6464;BME280;3265;42.694;23.282;2023-04-05T11:26:54;94373.28;;;4.58;82.67
6464;BME280;3265;42.694;23.282;2023-04-05T11:29:47;94370.69;;;4.58;83.05
6464;BME280;3265;42.694;23.282;2023-04-05T11:32:15;94313.06;;;4.18;83.11
6464;BME280;3265;42.694;23.282;2023-04-05T11:34:59;94345.41;;;4.62;82.16
6464;BME280;3265;42.694;23.282;2023-04-05T11:38:05;94295.22;;;4.17;81.51
6464;BME280;3265;42.694;23.282;2023-04-05T11:40:34;94370.94;;;4.63;81.51
6464;BME280;3265;42.694;23.282;2023-04-05T11:43:07;94282.09;;;4.33;82.10
6464;BME280;3265;42.694;23.282;2023-04-05T11:45:39;94368.13;;;4.92;80.26
6464;BME280;3265;42.694;23.282;2023-04-05T11:48:08;94342.19;;;4.59;81.56
6464;BME280;3265;42.694;23.282;2023-04-05T11:50:37;94356.13;;;4.72;81.38
6464;BME280;3265;42.694;23.282;2023-04-05T11:53:08;94353.97;;;4.47;82.44
6464;BME280;3265;42.694;23.282;2023-04-05T11:55:35;94335.81;;;4.49;82.33
6464;BME280;3265;42.694;23.282;2023-04-05T11:58:10;94351.31;;;4.62;82.02
6464;BME280;3265;42.694;23.282;2023-04-05T12:00:41;94300.59;;;4.56;83.07
6464;BME280;3265;42.694;23.282;2023-04-05T12:03:12;94289.84;;;4.80;81.70
6464;BME280;3265;42.694;23.282;2023-04-05T12:05:48;94316.75;;;5.19;80.77
6464;BME280;3265;42.694;23.282;2023-04-05T12:08:16;94331.78;;;5.15;80.07
6464;BME280;3265;42.694;23.282;2023-04-05T12:10:43;94290.81;;;4.79;81.56
6464;BME280;3265;42.694;23.282;2023-04-05T12:13:10;94371.00;;;5.10;82.13
6464;BME280;3265;42.694;23.282;2023-04-05T12:15:38;94365.66;;;4.78;82.48
6464;BME280;3265;42.694;23.282;2023-04-05T12:18:12;94365.13;;;4.89;83.86
6464;BME280;3265;42.694;23.282;2023-04-05T12:20:42;94365.19;;;4.95;83.35
6464;BME280;3265;42.694;23.282;2023-04-05T12:23:11;94360.34;;;4.86;83.28
6464;BME280;3265;42.694;23.282;2023-04-05T12:25:38;94366.78;;;5.03;84.17
6464;BME280;3265;42.694;23.282;2023-04-05T12:28:06;94368.66;;;4.81;84.86
6464;BME280;3265;42.694;23.282;2023-04-05T12:30:37;94365.06;;;4.48;85.62
6464;BME280;3265;42.694;23.282;2023-04-05T12:33:24;94355.44;;;4.29;85.41
6464;BME280;3265;42.694;23.282;2023-04-05T12:35:51;94368.16;;;4.37;86.81
6464;BME280;3265;42.694;23.282;2023-04-05T12:38:20;94356.69;;;4.12;86.67
6464;BME280;3265;42.694;23.282;2023-04-05T12:40:47;94350.63;;;4.19;85.86
6464;BME280;3265;42.694;23.282;2023-04-05T12:43:14;94318.97;;;3.91;86.49
6464;BME280;3265;42.694;23.282;2023-04-05T12:45:44;94340.94;;;3.93;86.77
6464;BME280;3265;42.694;23.282;2023-04-05T12:48:12;94361.91;;;3.97;87.29
6464;BME280;3265;42.694;23.282;2023-04-05T12:50:42;94362.22;;;3.87;87.29
6464;BME280;3265;42.694;23.282;2023-04-05T12:53:15;94369.63;;;3.97;87.24
6464;BME280;3265;42.694;23.282;2023-04-05T12:55:49;94360.47;;;4.16;86.89
6464;BME280;3265;42.694;23.282;2023-04-05T12:58:17;94364.19;;;4.07;84.90
6464;BME280;3265;42.694;23.282;2023-04-05T13:00:45;94351.56;;;3.90;84.06
6464;BME280;3265;42.694;23.282;2023-04-05T13:03:16;94362.94;;;3.81;84.47
6464;BME280;3265;42.694;23.282;2023-04-05T13:05:45;94373.06;;;3.83;84.01
6464;BME280;3265;42.694;23.282;2023-04-05T13:08:13;94364.59;;;3.68;84.57
6464;BME280;3265;42.694;23.282;2023-04-05T13:10:40;94375.63;;;3.62;84.67
6464;BME280;3265;42.694;23.282;2023-04-05T13:13:08;94381.13;;;3.59;85.34
6464;BME280;3265;42.694;23.282;2023-04-05T13:15:35;94351.50;;;3.41;85.18
6464;BME280;3265;42.694;23.282;2023-04-05T13:18:02;94381.13;;;3.59;85.89
6464;BME280;3265;42.694;23.282;2023-04-05T13:20:30;94375.28;;;3.86;86.47
6464;BME280;3265;42.694;23.282;2023-04-05T13:22:57;94384.00;;;4.68;84.76
6464;BME280;3265;42.694;23.282;2023-04-05T13:25:24;94370.25;;;5.23;82.06
6464;BME280;3265;42.694;23.282;2023-04-05T13:27:51;94364.34;;;5.96;79.28
6464;BME280;3265;42.694;23.282;2023-04-05T13:30:20;94383.19;;;6.36;76.20